Time;durP1;ratioP1;P1;durP2;ratioP2;P2;SDS_P1;SDS_P2;PMS_P1;PMS_P2;Temp;Humidity;BMP_temperature;BMP_pressure;BME280_temperature;BME280_humidity;BME280_pressure;Samples;Min_cycle;Max_cycle;Signal;HPM_P1;HPM_P2
2023/01/16 00:00:47;;;;;;;47.07;34.83;;;;;;;6.74;100.00;101495.66;2081986;28;20186;-59
2023/01/16 00:01:48;;;;;;;47.87;34.90;;;;;;;5.88;100.00;101379.88;2088963;28;20570;-59
2023/01/16 00:02:49;;;;;;;47.85;35.53;;;;;;;6.75;100.00;101505.50;2083504;28;20197;-59
2023/01/16 00:03:49;;;;;;;46.53;34.77;;;;;;;6.75;100.00;101506.28;2086652;28;20650;-59
2023/01/16 00:04:49;;;;;;;47.30;34.97;;;;;;;6.76;100.00;101509.84;2086902;28;20607;-59
2023/01/16 00:05:50;;;;;;;49.90;34.77;;;;;;;6.74;100.00;101501.97;2082967;28;20183;-60
2023/01/16 00:06:51;;;;;;;46.93;35.43;;;;;;;6.54;100.00;101469.56;2089574;28;20267;-59
2023/01/16 00:07:51;;;;;;;48.33;35.33;;;;;;;6.72;100.00;101498.78;2081678;28;20229;-59
2023/01/16 00:08:52;;;;;;;46.57;35.23;;;;;;;6.76;100.00;101496.06;2089420;28;20187;-59
2023/01/16 00:09:52;;;;;;;46.17;33.50;;;;;;;6.74;100.00;101488.19;2083533;28;20579;-59
2023/01/16 00:10:52;;;;;;;45.90;34.10;;;;;;;6.71;100.00;101486.19;2081747;28;20267;-60
2023/01/16 00:11:53;;;;;;;48.23;33.70;;;;;;;6.38;100.00;101441.53;2085117;28;20198;-59
2023/01/16 00:12:53;;;;;;;46.03;32.40;;;;;;;6.70;100.00;101489.31;2090013;28;20183;-59
2023/01/16 00:13:55;;;;;;;45.57;33.30;;;;;;;6.71;100.00;101493.69;2088732;28;20647;-59
2023/01/16 00:14:55;;;;;;;45.33;33.25;;;;;;;6.62;100.00;101480.22;2081772;28;20197;-59
2023/01/16 00:15:56;;;;;;;45.03;32.37;;;;;;;6.70;100.00;101492.88;2089387;28;20197;-59
2023/01/16 00:16:56;;;;;;;41.67;31.73;;;;;;;6.71;100.00;101494.47;2083352;28;20182;-59
2023/01/16 00:17:57;;;;;;;39.60;30.90;;;;;;;6.56;100.00;101473.50;2088604;28;20266;-60
2023/01/16 00:18:57;;;;;;;42.17;32.33;;;;;;;6.30;100.00;101432.44;2094352;28;20203;-60
2023/01/16 00:19:58;;;;;;;46.20;33.10;;;;;;;6.48;100.00;101465.59;2094484;28;20197;-59
2023/01/16 00:20:59;;;;;;;43.73;32.23;;;;;;;6.73;100.00;101496.84;2089486;28;20206;-59
2023/01/16 00:22:00;;;;;;;41.17;32.08;;;;;;;6.75;100.00;101495.28;2090893;28;20571;-60
2023/01/16 00:23:00;;;;;;;40.67;31.27;;;;;;;6.61;100.00;101470.41;2098294;28;20174;-59
2023/01/16 00:24:00;;;;;;;41.63;31.93;;;;;;;6.76;100.00;101491.34;2098203;28;20253;-60
2023/01/16 00:25:01;;;;;;;42.87;31.60;;;;;;;6.76;100.00;101493.31;2097998;28;20228;-59
2023/01/16 00:26:05;;;;;;;41.00;31.43;;;;;;;6.72;100.00;101490.53;2098305;28;20252;-59
2023/01/16 00:27:06;;;;;;;45.33;32.65;;;;;;;6.66;100.00;101474.78;2098061;28;20271;-59
2023/01/16 00:28:07;;;;;;;45.30;33.23;;;;;;;6.69;100.00;101482.25;2098200;28;20173;-59
2023/01/16 00:29:08;;;;;;;42.17;32.60;;;;;;;6.69;100.00;101476.75;2096052;28;20180;-59
2023/01/16 00:30:09;;;;;;;40.97;31.20;;;;;;;6.70;100.00;101475.56;2089894;28;20178;-59
2023/01/16 00:31:09;;;;;;;41.90;31.97;;;;;;;6.68;100.00;101470.47;2098183;28;20192;-59
2023/01/16 00:32:10;;;;;;;45.20;34.00;;;;;;;6.67;100.00;101474.38;2090166;28;20467;-59
2023/01/16 00:33:11;;;;;;;46.97;33.30;;;;;;;6.27;100.00;101408.47;2096223;28;20703;-59
2023/01/16 00:34:11;;;;;;;42.80;32.67;;;;;;;6.64;100.00;101469.63;2097852;28;20276;-60
2023/01/16 00:35:12;;;;;;;42.87;32.07;;;;;;;6.39;100.00;101446.69;2098360;28;20172;-59
2023/01/16 00:36:12;;;;;;;38.90;31.60;;;;;;;6.55;100.00;101462.88;2095152;28;20216;-59
2023/01/16 00:37:13;;;;;;;41.87;31.40;;;;;;;6.64;100.00;101468.84;2089676;28;20236;-59
2023/01/16 00:38:13;;;;;;;40.57;31.93;;;;;;;6.23;100.00;101410.41;2089893;28;20188;-59
2023/01/16 00:39:14;;;;;;;38.97;30.13;;;;;;;6.34;100.00;101425.00;2097650;28;20181;-59
2023/01/16 00:40:14;;;;;;;40.77;30.70;;;;;;;6.62;100.00;101471.97;2091788;28;20593;-59
2023/01/16 00:41:15;;;;;;;42.47;30.50;;;;;;;6.63;100.00;101472.78;2094806;28;20216;-59
2023/01/16 00:42:15;;;;;;;45.10;31.10;;;;;;;6.36;100.00;101430.91;2097763;28;20190;-59
2023/01/16 00:43:16;;;;;;;38.30;27.83;;;;;;;6.61;100.00;101472.38;2095977;28;20249;-60
2023/01/16 00:44:16;;;;;;;39.47;27.57;;;;;;;6.58;100.00;101476.69;2089656;28;20173;-59
2023/01/16 00:45:17;;;;;;;39.63;29.83;;;;;;;6.56;100.00;101470.00;2089568;28;20647;-59
2023/01/16 00:46:18;;;;;;;39.13;28.23;;;;;;;6.55;100.00;101474.69;2089437;28;20188;-59
2023/01/16 00:47:18;;;;;;;36.77;28.97;;;;;;;6.40;100.00;101450.22;2089800;28;20254;-59
2023/01/16 00:48:18;;;;;;;41.63;32.23;;;;;;;6.00;100.00;101395.31;2094416;28;20180;-59
2023/01/16 00:49:19;;;;;;;45.23;33.93;;;;;;;6.46;100.00;101467.97;2097808;28;20298;-59
2023/01/16 00:50:19;;;;;;;43.77;33.87;;;;;;;6.45;100.00;101458.91;2097536;28;20202;-59
2023/01/16 00:51:20;;;;;;;46.40;34.93;;;;;;;6.00;100.00;101393.31;2097048;28;20172;-60
2023/01/16 00:52:20;;;;;;;44.97;32.67;;;;;;;6.40;100.00;101461.25;2089644;28;20203;-60
2023/01/16 00:53:21;;;;;;;43.87;33.23;;;;;;;5.57;100.00;101330.91;2097500;28;20250;-59
2023/01/16 00:54:21;;;;;;;44.93;33.07;;;;;;;6.39;100.00;101449.44;2097645;28;20670;-59
2023/01/16 00:55:22;;;;;;;43.70;32.93;;;;;;;6.40;100.00;101451.00;2092295;28;20646;-60
2023/01/16 00:56:22;;;;;;;44.23;33.20;;;;;;;6.38;100.00;101442.34;2089719;28;20272;-59
2023/01/16 00:57:23;;;;;;;46.83;35.27;;;;;;;5.77;100.00;101361.69;2093031;28;20688;-59
2023/01/16 00:58:23;;;;;;;46.37;34.33;;;;;;;6.39;100.00;101446.69;2086889;28;20179;-60
2023/01/16 00:59:24;;;;;;;47.17;35.67;;;;;;;6.32;100.00;101438.38;2080770;28;20197;-59
2023/01/16 01:00:25;;;;;;;45.57;35.93;;;;;;;6.38;100.00;101444.31;2089726;28;20213;-59
2023/01/16 01:01:25;;;;;;;45.33;33.22;;;;;;;6.32;100.00;101438.38;2097217;28;20624;-60
2023/01/16 01:02:26;;;;;;;42.03;32.27;;;;;;;6.04;100.00;101396.09;2091241;28;20287;-60
2023/01/16 01:03:28;;;;;;;43.73;33.23;;;;;;;6.39;100.00;101440.38;2095193;28;20195;-59
2023/01/16 01:04:29;;;;;;;46.95;33.90;;;;;;;5.68;100.00;101340.03;2093343;28;20600;-59
2023/01/16 01:05:29;;;;;;;45.57;34.90;;;;;;;5.52;100.00;101317.53;2089627;28;20181;-60
2023/01/16 01:06:30;;;;;;;46.33;33.90;;;;;;;6.35;100.00;101442.34;2089801;28;20185;-59
2023/01/16 01:07:30;;;;;;;48.03;35.03;;;;;;;6.32;100.00;101440.34;2089600;28;20585;-60
2023/01/16 01:08:31;;;;;;;46.30;34.87;;;;;;;6.31;100.00;101439.53;2089480;28;20177;-59
2023/01/16 01:09:31;;;;;;;46.23;36.13;;;;;;;6.32;100.00;101434.81;2089586;28;20542;-60
2023/01/16 01:10:35;;;;;;;49.23;36.27;;;;;;;6.33;100.00;101441.91;2094525;28;20237;-59
2023/01/16 01:11:35;;;;;;;48.67;35.80;;;;;;;6.34;100.00;101429.72;2093439;28;20184;-59
2023/01/16 01:12:36;;;;;;;48.97;34.33;;;;;;;5.76;100.00;101352.69;2089330;28;20290;-60
2023/01/16 01:13:37;;;;;;;48.33;36.10;;;;;;;6.36;100.00;101443.91;2091008;28;20676;-60
2023/01/16 01:14:38;;;;;;;46.47;34.78;;;;;;;6.34;100.00;101446.22;2097850;28;20196;-59
2023/01/16 01:15:39;;;;;;;46.00;34.73;;;;;;;6.33;100.00;101434.44;2097751;28;20667;-60
2023/01/16 01:16:40;;;;;;;45.27;34.23;;;;;;;6.21;100.00;101412.72;2090715;28;20193;-59
2023/01/16 01:17:40;;;;;;;43.83;33.28;;;;;;;6.36;100.00;101438.41;2072121;28;20314;-60
2023/01/16 01:18:41;;;;;;;47.03;35.20;;;;;;;6.32;100.00;101437.56;2077017;28;20196;-60
2023/01/16 01:19:41;;;;;;;48.60;36.63;;;;;;;6.16;100.00;101415.84;2097633;28;20191;-59
2023/01/16 01:20:41;;;;;;;45.13;34.20;;;;;;;6.41;100.00;101438.03;2095247;28;20168;-59
2023/01/16 01:21:42;;;;;;;46.30;34.90;;;;;;;5.67;100.00;101318.41;2089657;28;20660;-60
2023/01/16 01:22:45;;;;;;;42.80;34.03;;;;;;;6.00;100.00;101362.28;2089229;28;20564;-59
2023/01/16 01:23:45;;;;;;;48.40;35.28;;;;;;;6.46;100.00;101427.44;2097862;28;20304;-59
2023/01/16 01:24:49;;;;;;;45.83;34.30;;;;;;;6.49;100.00;101426.69;2090193;28;20234;-59
2023/01/16 01:25:50;;;;;;;42.63;33.85;;;;;;;6.54;100.00;101431.00;2089536;28;20173;-59
2023/01/16 01:26:50;;;;;;;43.53;31.53;;;;;;;6.53;100.00;101434.94;2094586;28;20203;-59
2023/01/16 01:27:51;;;;;;;40.20;31.40;;;;;;;6.53;100.00;101424.72;2097774;28;20173;-59
2023/01/16 01:28:51;;;;;;;40.63;31.40;;;;;;;6.59;100.00;101427.88;2094949;28;20185;-60
2023/01/16 01:29:51;;;;;;;35.40;27.00;;;;;;;6.59;100.00;101423.19;2090224;28;20170;-60
2023/01/16 01:30:52;;;;;;;35.73;26.13;;;;;;;6.55;100.00;101418.81;2097833;28;20669;-59
2023/01/16 01:31:52;;;;;;;35.60;26.53;;;;;;;5.90;100.00;101324.50;2089354;28;20180;-59
2023/01/16 01:32:53;;;;;;;33.47;27.03;;;;;;;6.59;100.00;101423.19;2088643;28;20199;-59
2023/01/16 01:33:53;;;;;;;33.93;26.67;;;;;;;6.59;100.00;101419.63;2094652;28;20196;-60
2023/01/16 01:34:53;;;;;;;37.07;27.27;;;;;;;6.54;100.00;101422.75;2093722;28;20700;-60
2023/01/16 01:35:54;;;;;;;37.07;29.07;;;;;;;6.46;100.00;101407.38;2092110;28;20220;-60
2023/01/16 01:36:54;;;;;;;37.50;28.50;;;;;;;6.51;100.00;101415.28;2095774;28;20180;-59
2023/01/16 01:37:55;;;;;;;35.97;27.50;;;;;;;6.20;100.00;101374.59;2089629;28;20680;-60
2023/01/16 01:38:55;;;;;;;38.10;27.40;;;;;;;6.54;100.00;101414.50;2097722;28;20170;-60
2023/01/16 01:39:56;;;;;;;43.37;29.23;;;;;;;6.53;100.00;101410.97;2089810;28;20201;-59
2023/01/16 01:40:56;;;;;;;39.77;28.20;;;;;;;6.24;100.00;101381.69;2089582;28;20181;-59
2023/01/16 01:43:17;;;;;;;36.78;27.92;;;;;;;6.50;100.00;101406.22;2096530;28;20179;-60
2023/01/16 01:44:44;;;;;;;36.42;27.73;;;;;;;6.46;100.00;101397.16;2097677;28;20172;-59
2023/01/16 01:45:50;;;;;;;37.65;28.50;;;;;;;6.34;100.00;101386.47;2097622;28;20624;-59
2023/01/16 01:46:50;;;;;;;36.33;28.30;;;;;;;6.44;100.00;101395.94;2097529;28;20189;-59
2023/01/16 01:48:12;;;;;;;41.40;28.67;;;;;;;6.45;100.00;101392.00;2091769;28;20267;-60
2023/01/16 01:49:23;;;;;;;39.35;28.52;;;;;;;6.49;100.00;101384.56;2089417;28;20170;-60
2023/01/16 01:50:30;;;;;;;44.00;29.08;;;;;;;6.17;100.00;101328.56;2089358;28;20160;-59
2023/01/16 01:51:37;;;;;;;40.25;29.10;;;;;;;6.53;100.00;101386.19;2095590;28;20187;-59
2023/01/16 01:52:37;;;;;;;42.20;29.50;;;;;;;6.17;100.00;101334.09;2097602;28;20698;-59
2023/01/16 01:53:43;;;;;;;42.50;30.13;;;;;;;6.49;100.00;101373.56;2092664;28;20611;-60
2023/01/16 01:54:49;;;;;;;41.75;30.65;;;;;;;6.47;100.00;101365.69;2089320;28;20273;-60
2023/01/16 01:55:50;;;;;;;42.03;31.98;;;;;;;6.45;100.00;101359.78;2089302;28;20157;-59
2023/01/16 01:56:59;;;;;;;42.50;31.37;;;;;;;6.46;100.00;101364.09;2089375;28;20182;-60
2023/01/16 01:58:02;;;;;;;43.13;31.35;;;;;;;6.12;100.00;101304.97;2089176;28;20693;-60
2023/01/16 01:59:10;;;;;;;41.42;31.02;;;;;;;6.50;100.00;101353.91;2088402;28;20243;-59
2023/01/16 02:00:20;;;;;;;43.13;32.38;;;;;;;6.52;100.00;101348.78;2081482;28;20569;-60
2023/01/16 02:01:21;;;;;;;40.38;31.10;;;;;;;6.52;100.00;101356.28;2089043;28;20598;-59
2023/01/16 02:02:26;;;;;;;40.63;31.77;;;;;;;5.83;100.00;101258.44;2089317;28;20688;-60
2023/01/16 02:03:38;;;;;;;41.38;31.25;;;;;;;6.52;100.00;101357.03;2095567;28;20245;-60
2023/01/16 02:04:43;;;;;;;39.60;30.90;;;;;;;6.54;100.00;101362.97;2097782;28;20213;-59
2023/01/16 02:05:49;;;;;;;43.22;30.92;;;;;;;6.45;100.00;101339.72;2090861;28;20211;-59
2023/01/16 02:06:56;;;;;;;43.38;31.25;;;;;;;6.22;100.00;101320.75;2089319;28;20242;-59
2023/01/16 02:07:58;;;;;;;40.35;30.48;;;;;;;6.57;100.00;101345.66;2094673;28;20179;-59
2023/01/16 02:08:59;;;;;;;46.08;31.35;;;;;;;6.61;100.00;101349.22;2097467;28;20192;-60
2023/01/16 02:10:21;;;;;;;44.00;32.23;;;;;;;6.60;100.00;101344.91;2097420;28;20652;-59
2023/01/16 02:11:30;;;;;;;43.17;32.22;;;;;;;6.60;100.00;101344.91;2092167;28;20184;-59
2023/01/16 02:12:31;;;;;;;48.85;33.28;;;;;;;5.91;100.00;101249.84;2089093;28;20178;-59
2023/01/16 02:13:32;;;;;;;43.88;32.03;;;;;;;6.56;100.00;101346.06;2092315;28;20190;-59
2023/01/16 02:14:36;;;;;;;41.90;31.37;;;;;;;6.48;100.00;101330.69;2097329;28;20172;-59
2023/01/16 02:19:14;;;;;;;41.92;29.60;;;;;;;6.53;100.00;101341.31;2097109;28;20180;-59
2023/01/16 02:20:09;;;;;;;50.72;32.47;;;;;;;6.41;100.00;101334.19;2094494;28;20660;-59
2023/01/16 02:21:31;;;;;;;44.72;33.15;;;;;;;6.39;100.00;101327.50;2089940;28;20690;-59
2023/01/16 02:22:53;;;;;;;46.80;32.45;;;;;;;6.40;100.00;101323.59;2089105;28;20178;-59
2023/01/16 02:23:59;;;;;;;40.47;30.88;;;;;;;6.34;100.00;101323.16;2089700;28;20173;-59
2023/01/16 02:25:15;;;;;;;43.28;32.05;;;;;;;6.34;100.00;101323.16;2097729;28;20590;-59
2023/01/16 02:26:18;;;;;;;41.85;30.45;;;;;;;6.33;100.00;101310.56;2097103;28;20163;-60
2023/01/16 02:27:21;;;;;;;40.75;31.10;;;;;;;6.31;100.00;101304.66;2089190;28;20183;-59
2023/01/16 02:29:10;;;;;;;41.83;31.17;;;;;;;6.29;100.00;101312.53;2088906;28;20629;-59
2023/01/16 02:30:21;;;;;;;44.00;30.77;;;;;;;6.08;100.00;101279.41;2075071;28;20204;-59
2023/01/16 02:31:38;;;;;;;48.55;31.38;;;;;;;6.27;100.00;101314.06;2088248;28;20213;-60
2023/01/16 02:33:24;;;;;;;42.58;30.42;;;;;;;6.27;100.00;101312.13;2089247;28;20168;-59
2023/01/16 02:34:36;;;;;;;44.25;30.33;;;;;;;6.23;100.00;101305.00;2089113;28;20165;-60
2023/01/16 02:36:05;;;;;;;41.95;30.67;;;;;;;6.21;100.00;101305.38;2088944;28;20169;-60
2023/01/16 02:38:00;;;;;;;43.60;31.00;;;;;;;6.20;100.00;101308.56;2075786;28;20192;-59
2023/01/16 02:39:12;;;;;;;43.40;29.38;;;;;;;6.19;100.00;101306.94;2063603;28;20198;-59
2023/01/16 02:40:28;;;;;;;42.85;31.05;;;;;;;6.16;100.00;101313.25;2065128;28;20183;-60
2023/01/16 02:41:41;;;;;;;44.35;30.33;;;;;;;6.13;100.00;101306.53;2090556;28;20634;-59
2023/01/16 02:43:10;;;;;;;42.70;29.67;;;;;;;6.11;100.00;101300.63;2097006;28;20175;-59
2023/01/16 02:44:13;;;;;;;41.30;30.58;;;;;;;6.18;100.00;101310.88;2087313;28;20201;-59
2023/01/16 02:45:24;;;;;;;43.92;31.45;;;;;;;5.26;100.00;101157.53;2094434;28;20184;-59
2023/01/16 02:46:32;;;;;;;45.80;31.88;;;;;;;6.22;100.00;101303.44;2086584;28;20690;-60
2023/01/16 02:47:38;;;;;;;44.70;32.65;;;;;;;6.25;100.00;101306.19;2084476;28;20275;-59
2023/01/16 02:48:48;;;;;;;49.00;33.40;;;;;;;5.65;100.00;101208.78;2096931;28;20175;-59
2023/01/16 02:50:26;;;;;;;43.78;32.25;;;;;;;6.25;100.00;101303.44;2098754;28;20217;-59
2023/01/16 02:51:32;;;;;;;46.50;30.60;;;;;;;5.91;100.00;101258.09;2084740;28;20207;-59
2023/01/16 02:52:35;;;;;;;42.60;31.90;;;;;;;6.28;100.00;101308.19;2090624;28;20184;-59
2023/01/16 02:53:56;;;;;;;46.08;32.30;;;;;;;5.63;100.00;101193.84;2095512;28;20228;-59
2023/01/16 02:55:03;;;;;;;41.58;31.38;;;;;;;6.33;100.00;101304.28;2099003;28;20221;-59
2023/01/16 02:56:11;;;;;;;40.30;29.15;;;;;;;6.38;100.00;101292.88;2098585;28;20187;-59
2023/01/16 02:57:20;;;;;;;44.65;31.65;;;;;;;6.38;100.00;101303.91;2093770;28;20687;-59
2023/01/16 02:58:21;;;;;;;42.45;29.55;;;;;;;6.24;100.00;101270.81;2095590;28;20666;-59
2023/01/16 02:59:24;;;;;;;41.42;30.13;;;;;;;6.42;100.00;101299.19;2095255;28;20566;-59
2023/01/16 03:00:26;;;;;;;39.78;29.98;;;;;;;6.43;100.00;101295.25;2093119;28;20181;-59
2023/01/16 03:01:26;;;;;;;41.72;30.35;;;;;;;6.43;100.00;101301.56;2096996;28;20587;-59
2023/01/16 03:02:27;;;;;;;42.47;30.40;;;;;;;6.46;100.00;101298.03;2090571;28;20264;-59
2023/01/16 03:03:52;;;;;;;43.53;30.43;;;;;;;6.49;100.00;101299.22;2090621;28;20190;-59
2023/01/16 03:04:52;;;;;;;45.90;31.73;;;;;;;6.53;100.00;101302.78;2090650;28;20165;-60
2023/01/16 03:05:59;;;;;;;43.97;30.20;;;;;;;6.58;100.00;101302.41;2090666;28;20264;-59
2023/01/16 03:07:46;;;;;;;44.03;31.60;;;;;;;6.58;100.00;101292.19;2098979;28;20173;-59
2023/01/16 03:09:23;;;;;;;44.05;29.85;;;;;;;6.57;100.00;101290.59;2068914;28;20757;-59
2023/01/16 03:10:39;;;;;;;48.60;30.67;;;;;;;6.54;100.00;101279.56;2064905;28;20664;-60
2023/01/16 03:12:14;;;;;;;51.15;30.30;;;;;;;6.59;100.00;101290.19;2057131;28;20199;-59
2023/01/16 03:13:46;;;;;;;50.42;30.95;;;;;;;6.60;100.00;101284.31;2061630;28;20207;-60
2023/01/16 03:14:59;;;;;;;48.08;29.05;;;;;;;6.60;100.00;101273.28;2084464;28;20220;-60
2023/01/16 03:16:22;;;;;;;51.17;30.08;;;;;;;6.61;100.00;101272.09;2090469;28;20234;-60
2023/01/16 03:17:49;;;;;;;43.35;29.40;;;;;;;6.47;100.00;101247.28;2090283;28;20588;-59
2023/01/16 03:19:16;;;;;;;44.17;29.67;;;;;;;6.66;100.00;101271.72;2090461;28;20690;-60
2023/01/16 03:21:00;;;;;;;41.13;28.65;;;;;;;6.65;100.00;101266.59;2092356;28;20171;-59
2023/01/16 03:22:36;;;;;;;37.85;26.77;;;;;;;6.66;100.00;101268.19;2082114;28;20217;-59
2023/01/16 03:23:53;;;;;;;38.65;26.10;;;;;;;6.67;100.00;101267.03;2064827;28;20194;-60
2023/01/16 03:25:05;;;;;;;35.05;26.83;;;;;;;6.66;100.00;101274.47;2089633;28;20273;-60
2023/01/16 03:26:33;;;;;;;35.72;26.65;;;;;;;6.48;100.00;101234.31;2091315;28;20252;-60
2023/01/16 03:27:59;;;;;;;37.53;27.48;;;;;;;6.74;100.00;101276.09;2093352;28;20656;-59
2023/01/16 03:29:46;;;;;;;42.03;27.88;;;;;;;6.78;100.00;101276.09;2091240;28;20195;-60
2023/01/16 03:30:59;;;;;;;38.13;27.95;;;;;;;6.80;100.00;101277.28;2072956;28;20687;-60
2023/01/16 03:32:07;;;;;;;44.70;26.70;;;;;;;6.80;100.00;101280.03;2069857;28;20782;-59
2023/01/16 03:33:19;;;;;;;40.65;27.25;;;;;;;6.85;100.00;101276.09;2064551;28;20204;-61
2023/01/16 03:34:41;;;;;;;41.13;25.60;;;;;;;6.60;100.00;101225.69;2072914;28;20171;-59
2023/01/16 03:36:09;;;;;;;40.25;25.98;;;;;;;6.88;100.00;101269.81;2072891;28;20192;-59
2023/01/16 03:37:13;;;;;;;38.27;26.03;;;;;;;6.90;100.00;101270.19;2090098;28;20182;-59
2023/01/16 03:38:17;;;;;;;43.13;25.50;;;;;;;6.90;100.00;101262.72;2095481;28;20565;-59
2023/01/16 03:39:23;;;;;;;41.47;26.15;;;;;;;6.84;100.00;101266.25;2098514;28;20685;-59
2023/01/16 03:40:32;;;;;;;43.28;25.42;;;;;;;6.87;100.00;101258.00;2098635;28;20166;-59
2023/01/16 03:41:35;;;;;;;37.40;26.63;;;;;;;6.90;100.00;101268.25;2098658;28;20165;-59
2023/01/16 03:43:08;;;;;;;36.33;25.92;;;;;;;6.93;100.00;101263.91;2088159;28;20496;-59
2023/01/16 03:44:16;;;;;;;36.70;24.98;;;;;;;6.94;100.00;101262.72;2090374;28;20280;-59
2023/01/16 03:45:28;;;;;;;37.25;25.73;;;;;;;6.95;100.00;101259.59;2098585;28;20743;-60
2023/01/16 03:46:32;;;;;;;31.27;24.33;;;;;;;6.97;100.00;101264.72;2094742;28;20192;-60
2023/01/16 03:47:40;;;;;;;37.83;24.35;;;;;;;7.00;100.00;101266.66;2090252;28;20196;-60
2023/01/16 03:48:48;;;;;;;33.47;25.30;;;;;;;7.01;100.00;101265.47;2095952;28;20200;-59
2023/01/16 03:49:54;;;;;;;36.70;25.35;;;;;;;7.00;100.00;101266.66;2095061;28;20702;-60
2023/01/16 03:50:59;;;;;;;33.88;24.40;;;;;;;7.02;100.00;101261.56;2090400;28;20173;-60
2023/01/16 03:52:04;;;;;;;38.63;26.15;;;;;;;7.03;100.00;101260.38;2089864;28;20177;-59
2023/01/16 03:53:10;;;;;;;36.60;25.73;;;;;;;7.02;100.00;101259.56;2090744;28;20182;-59
2023/01/16 03:54:25;;;;;;;39.88;25.73;;;;;;;7.03;100.00;101263.91;2098433;28;20161;-59
2023/01/16 03:55:44;;;;;;;35.85;24.52;;;;;;;7.00;100.00;101267.47;2097501;28;20160;-59
2023/01/16 03:57:14;;;;;;;32.72;24.30;;;;;;;6.99;100.00;101265.91;2091589;28;20635;-59
2023/01/16 03:58:24;;;;;;;36.08;25.20;;;;;;;6.80;100.00;101237.91;2080781;28;20200;-59
2023/01/16 03:59:25;;;;;;;33.90;24.75;;;;;;;6.95;100.00;101250.53;2092682;28;20694;-59
2023/01/16 04:00:31;;;;;;;33.03;24.37;;;;;;;6.98;100.00;101236.72;2093002;28;20642;-60
2023/01/16 04:01:43;;;;;;;33.53;24.65;;;;;;;6.95;100.00;101237.53;2098314;28;20412;-60
2023/01/16 04:02:53;;;;;;;34.58;24.55;;;;;;;6.63;100.00;101189.09;2098325;28;20638;-59
2023/01/16 04:04:11;;;;;;;36.47;24.73;;;;;;;6.99;100.00;101238.34;2098457;28;20191;-59
2023/01/16 04:05:19;;;;;;;34.03;25.35;;;;;;;6.97;100.00;101234.41;2098358;28;20170;-60
2023/01/16 04:06:27;;;;;;;34.42;25.35;;;;;;;7.00;100.00;101226.13;2098572;28;20168;-59
2023/01/16 04:07:44;;;;;;;35.10;25.70;;;;;;;6.82;100.00;101197.78;2097379;28;20215;-59
2023/01/16 04:08:46;;;;;;;34.10;24.98;;;;;;;6.49;100.00;101145.81;2090206;28;20579;-59
2023/01/16 04:09:56;;;;;;;38.42;25.40;;;;;;;7.02;100.00;101215.47;2089943;28;20186;-60
2023/01/16 04:10:57;;;;;;;33.30;24.45;;;;;;;7.04;100.00;101229.69;2098167;28;20639;-59
2023/01/16 04:12:00;;;;;;;32.88;24.98;;;;;;;7.04;100.00;101221.41;2098187;28;20182;-60
2023/01/16 04:13:18;;;;;;;31.00;24.67;;;;;;;7.08;100.00;101218.66;2091848;28;20550;-59
2023/01/16 04:14:22;;;;;;;39.17;25.50;;;;;;;7.10;100.00;101227.28;2089901;28;20641;-59
2023/01/16 04:15:24;;;;;;;34.60;24.48;;;;;;;7.10;100.00;101228.09;2089956;28;20286;-59
2023/01/16 04:16:26;;;;;;;38.75;25.65;;;;;;;7.07;100.00;101220.59;2090033;28;20673;-60
2023/01/16 04:17:28;;;;;;;34.40;25.00;;;;;;;7.05;100.00;101224.94;2089782;28;20289;-60
2023/01/16 04:18:34;;;;;;;35.75;26.15;;;;;;;7.00;100.00;101236.34;2089728;28;20180;-59
2023/01/16 04:19:36;;;;;;;33.28;26.08;;;;;;;6.80;100.00;101202.09;2090051;28;20172;-60
2023/01/16 04:20:42;;;;;;;34.28;25.38;;;;;;;7.04;100.00;101240.69;2091293;28;20211;-60
2023/01/16 04:21:44;;;;;;;33.15;24.63;;;;;;;7.03;100.00;101239.09;2097948;28;20632;-60
2023/01/16 04:22:49;;;;;;;35.45;25.98;;;;;;;7.06;100.00;101240.28;2089704;28;20184;-60
2023/01/16 04:23:53;;;;;;;36.28;25.30;;;;;;;7.06;100.00;101237.53;2090175;28;20653;-60
2023/01/16 04:24:56;;;;;;;34.10;24.73;;;;;;;7.04;100.00;101237.94;2089851;28;20311;-60
2023/01/16 04:25:57;;;;;;;37.42;26.92;;;;;;;6.82;100.00;101236.34;2089630;28;20190;-60
2023/01/16 04:26:57;;;;;;;36.30;27.13;;;;;;;6.79;100.00;101237.13;2090069;28;20184;-59
2023/01/16 04:27:58;;;;;;;35.67;27.13;;;;;;;6.60;100.00;101204.44;2090093;28;20207;-59
2023/01/16 04:28:58;;;;;;;34.53;26.43;;;;;;;6.83;100.00;101240.66;2089694;28;20642;-59
2023/01/16 04:29:59;;;;;;;37.23;27.87;;;;;;;6.79;100.00;101234.38;2090732;28;20690;-60
2023/01/16 04:30:59;;;;;;;36.33;28.40;;;;;;;6.80;100.00;101237.91;2098361;28;20222;-60
2023/01/16 04:32:00;;;;;;;38.27;27.57;;;;;;;6.34;100.00;101185.53;2089575;28;20192;-60
2023/01/16 04:33:02;;;;;;;35.50;27.50;;;;;;;6.70;100.00;101258.75;2090074;28;20227;-59
2023/01/16 04:34:02;;;;;;;37.25;28.27;;;;;;;6.79;100.00;101241.84;2089887;28;20559;-59
2023/01/16 04:35:04;;;;;;;39.33;28.17;;;;;;;6.80;100.00;101244.22;2090041;28;20208;-60
2023/01/16 04:36:05;;;;;;;36.58;27.73;;;;;;;6.12;100.00;101130.81;2092646;28;20179;-59
2023/01/16 04:37:06;;;;;;;37.90;28.03;;;;;;;6.80;100.00;101233.19;2096988;28;20186;-59
2023/01/16 04:38:06;;;;;;;40.17;28.90;;;;;;;6.45;100.00;101174.50;2089833;28;20188;-59
2023/01/16 04:39:06;;;;;;;40.23;27.80;;;;;;;6.80;100.00;101235.94;2097910;28;20191;-60
2023/01/16 04:40:08;;;;;;;40.30;29.03;;;;;;;6.76;100.00;101224.13;2098078;28;20217;-59
2023/01/16 04:41:09;;;;;;;40.17;29.23;;;;;;;6.80;100.00;101227.69;2092580;28;20241;-60
2023/01/16 04:42:10;;;;;;;42.83;30.63;;;;;;;6.16;100.00;101121.38;2089793;28;20338;-60
2023/01/16 04:43:10;;;;;;;39.00;28.48;;;;;;;6.50;100.00;101182.38;2089751;28;20177;-59
2023/01/16 04:44:12;;;;;;;35.30;26.47;;;;;;;6.69;100.00;101213.13;2089508;28;20176;-60
2023/01/16 04:45:13;;;;;;;33.13;25.58;;;;;;;6.70;100.00;101217.44;2089747;28;20172;-59
2023/01/16 04:46:13;;;;;;;35.03;25.70;;;;;;;6.72;100.00;101212.31;2089781;28;20191;-60
2023/01/16 04:47:13;;;;;;;33.93;25.00;;;;;;;6.73;100.00;101213.13;2096660;28;20183;-60
2023/01/16 04:48:14;;;;;;;33.73;24.77;;;;;;;6.74;100.00;101212.72;2093004;28;20196;-60
2023/01/16 04:49:14;;;;;;;30.63;24.40;;;;;;;6.75;100.00;101205.25;2089644;28;20273;-60
2023/01/16 04:50:16;;;;;;;32.23;24.87;;;;;;;6.76;100.00;101215.09;2091127;28;20184;-60
2023/01/16 04:51:16;;;;;;;29.40;23.95;;;;;;;6.78;100.00;101210.78;2097421;28;20180;-60
2023/01/16 04:52:16;;;;;;;31.37;24.37;;;;;;;6.77;100.00;101211.94;2089713;28;20218;-60
2023/01/16 04:53:17;;;;;;;33.17;24.53;;;;;;;6.77;100.00;101217.44;2089766;28;20184;-59
2023/01/16 04:54:19;;;;;;;29.40;22.90;;;;;;;6.44;100.00;101159.19;2089805;28;20196;-59
2023/01/16 04:55:20;;;;;;;32.42;25.33;;;;;;;6.47;100.00;101167.44;2094671;28;20218;-60
2023/01/16 04:56:21;;;;;;;35.90;26.87;;;;;;;6.66;100.00;101213.13;2095729;28;20198;-62
2023/01/16 04:57:21;;;;;;;34.77;26.57;;;;;;;6.61;100.00;101222.53;2095660;28;20199;-62
2023/01/16 04:58:22;;;;;;;38.83;26.57;;;;;;;6.63;100.00;101224.91;2094839;28;20254;-63
2023/01/16 04:59:22;;;;;;;37.20;28.00;;;;;;;6.65;100.00;101228.03;2095979;28;20198;-62
2023/01/16 05:00:23;;;;;;;35.87;27.60;;;;;;;6.55;100.00;101221.34;2089172;28;20172;-61
2023/01/16 05:01:24;;;;;;;37.00;27.57;;;;;;;6.54;100.00;101224.50;2102670;28;20206;-62
2023/01/16 05:02:24;;;;;;;39.33;28.20;;;;;;;6.50;100.00;101216.22;2094962;28;20191;-63
2023/01/16 05:03:24;;;;;;;38.33;28.33;;;;;;;6.53;100.00;101209.16;2096187;28;20194;-63
2023/01/16 05:04:25;;;;;;;35.27;27.00;;;;;;;6.53;100.00;101212.69;2095924;28;20198;-61
2023/01/16 05:05:25;;;;;;;34.23;27.10;;;;;;;6.54;100.00;101219.78;2095609;28;20242;-60
2023/01/16 05:06:26;;;;;;;36.50;27.63;;;;;;;6.54;100.00;101210.72;2095121;28;20655;-60